Royal, Iowa
Current Conditions -  °F | °C
As of 8:53 PM on Saturday 25 Oct 2014 (Local Time) from KSPW Reporting Station
Clear Clear  
Wind Chill: 47°   Ceiling: Unl
Heat Index: 47°   Visibility: 10mi
Dew Point: 34°   Wind: 3mph
Humidity: 61%   Direction: 40°NE
Pressure: 30.08"   Gusts: NA
Location:  43.07°N, 95.28°W
Report Text: KSPW 260153Z AUTO 04003KT 10SM CLR 08/01 A3008 RMK AO2 SLP191 T00830011 TSNO
Loading
Personal Weather Stations






























Interactive Weather Map
Tropical Storm Tracking
New forecast layout! Learn more

10-Day Weather Forecast

Advertisements
Track Severe Weather on mobile